sensor_id;sensor_type;location;lat;lon;timestamp;P1;durP1;ratioP1;P2;durP2;ratioP2
60203;SDS011;46068;52.132;4.618;2023-06-10T00:00:56;12.52;;;4.70;;
60203;SDS011;46068;52.132;4.618;2023-06-10T00:03:24;11.52;;;4.70;;
60203;SDS011;46068;52.132;4.618;2023-06-10T00:05:51;6.65;;;4.10;;
60203;SDS011;46068;52.132;4.618;2023-06-10T00:08:17;11.75;;;4.75;;
60203;SDS011;46068;52.132;4.618;2023-06-10T00:10:46;9.57;;;4.03;;
60203;SDS011;46068;52.132;4.618;2023-06-10T00:13:12;11.00;;;4.63;;
60203;SDS011;46068;52.132;4.618;2023-06-10T00:15:39;10.90;;;4.55;;
60203;SDS011;46068;52.132;4.618;2023-06-10T00:18:05;13.50;;;4.60;;
60203;SDS011;46068;52.132;4.618;2023-06-10T00:20:34;9.15;;;4.25;;
60203;SDS011;46068;52.132;4.618;2023-06-10T00:23:02;5.93;;;4.25;;
60203;SDS011;46068;52.132;4.618;2023-06-10T00:25:31;7.05;;;4.07;;
60203;SDS011;46068;52.132;4.618;2023-06-10T00:27:59;8.15;;;4.50;;
60203;SDS011;46068;52.132;4.618;2023-06-10T00:30:25;11.98;;;4.68;;
60203;SDS011;46068;52.132;4.618;2023-06-10T00:32:51;10.23;;;3.83;;
60203;SDS011;46068;52.132;4.618;2023-06-10T00:35:18;10.57;;;4.47;;
60203;SDS011;46068;52.132;4.618;2023-06-10T00:37:44;8.82;;;4.32;;
60203;SDS011;46068;52.132;4.618;2023-06-10T00:40:11;10.45;;;4.35;;
60203;SDS011;46068;52.132;4.618;2023-06-10T00:42:37;11.63;;;4.30;;
60203;SDS011;46068;52.132;4.618;2023-06-10T00:45:05;10.65;;;4.70;;
60203;SDS011;46068;52.132;4.618;2023-06-10T00:47:32;7.78;;;4.50;;
60203;SDS011;46068;52.132;4.618;2023-06-10T00:50:00;8.43;;;4.53;;
60203;SDS011;46068;52.132;4.618;2023-06-10T00:52:28;8.68;;;4.40;;
60203;SDS011;46068;52.132;4.618;2023-06-10T00:54:54;8.90;;;4.00;;
60203;SDS011;46068;52.132;4.618;2023-06-10T00:57:21;7.35;;;4.07;;
60203;SDS011;46068;52.132;4.618;2023-06-10T00:59:48;12.30;;;4.85;;
60203;SDS011;46068;52.132;4.618;2023-06-10T01:02:15;9.15;;;4.55;;
60203;SDS011;46068;52.132;4.618;2023-06-10T01:04:42;6.30;;;4.20;;
60203;SDS011;46068;52.132;4.618;2023-06-10T01:07:10;10.13;;;4.00;;
60203;SDS011;46068;52.132;4.618;2023-06-10T01:09:42;8.32;;;4.13;;
60203;SDS011;46068;52.132;4.618;2023-06-10T01:12:10;11.48;;;4.43;;
60203;SDS011;46068;52.132;4.618;2023-06-10T01:14:38;8.25;;;4.47;;
60203;SDS011;46068;52.132;4.618;2023-06-10T01:17:10;10.38;;;3.95;;
60203;SDS011;46068;52.132;4.618;2023-06-10T01:19:38;8.85;;;4.40;;
60203;SDS011;46068;52.132;4.618;2023-06-10T01:22:07;8.18;;;3.90;;
60203;SDS011;46068;52.132;4.618;2023-06-10T01:24:33;8.38;;;4.22;;
60203;SDS011;46068;52.132;4.618;2023-06-10T01:27:00;8.93;;;4.05;;
60203;SDS011;46068;52.132;4.618;2023-06-10T01:29:28;7.22;;;4.00;;
60203;SDS011;46068;52.132;4.618;2023-06-10T01:31:59;8.90;;;4.32;;
60203;SDS011;46068;52.132;4.618;2023-06-10T01:34:27;7.85;;;3.88;;
60203;SDS011;46068;52.132;4.618;2023-06-10T01:36:56;7.03;;;4.03;;
60203;SDS011;46068;52.132;4.618;2023-06-10T01:39:24;10.88;;;4.15;;
60203;SDS011;46068;52.132;4.618;2023-06-10T01:41:52;7.80;;;4.18;;
60203;SDS011;46068;52.132;4.618;2023-06-10T01:44:18;9.57;;;4.22;;
60203;SDS011;46068;52.132;4.618;2023-06-10T01:46:45;7.05;;;3.80;;
60203;SDS011;46068;52.132;4.618;2023-06-10T01:49:11;8.85;;;4.00;;
60203;SDS011;46068;52.132;4.618;2023-06-10T01:51:38;10.55;;;4.15;;
60203;SDS011;46068;52.132;4.618;2023-06-10T01:54:04;9.48;;;4.38;;
60203;SDS011;46068;52.132;4.618;2023-06-10T01:56:32;10.68;;;4.30;;
60203;SDS011;46068;52.132;4.618;2023-06-10T01:58:58;5.28;;;3.67;;
60203;SDS011;46068;52.132;4.618;2023-06-10T02:01:25;9.73;;;4.32;;
60203;SDS011;46068;52.132;4.618;2023-06-10T02:03:51;8.07;;;4.32;;
60203;SDS011;46068;52.132;4.618;2023-06-10T02:06:17;9.30;;;4.40;;
60203;SDS011;46068;52.132;4.618;2023-06-10T02:08:44;7.57;;;3.95;;
60203;SDS011;46068;52.132;4.618;2023-06-10T02:11:10;11.68;;;4.15;;
60203;SDS011;46068;52.132;4.618;2023-06-10T02:13:38;10.70;;;4.32;;
60203;SDS011;46068;52.132;4.618;2023-06-10T02:16:04;10.38;;;4.53;;
60203;SDS011;46068;52.132;4.618;2023-06-10T02:18:31;8.07;;;4.40;;
60203;SDS011;46068;52.132;4.618;2023-06-10T02:20:58;10.32;;;4.10;;
60203;SDS011;46068;52.132;4.618;2023-06-10T02:23:25;8.38;;;4.05;;
60203;SDS011;46068;52.132;4.618;2023-06-10T02:25:51;11.98;;;4.28;;
60203;SDS011;46068;52.132;4.618;2023-06-10T02:28:17;10.27;;;4.15;;
60203;SDS011;46068;52.132;4.618;2023-06-10T02:30:45;6.38;;;3.78;;
60203;SDS011;46068;52.132;4.618;2023-06-10T02:33:11;6.43;;;3.95;;
60203;SDS011;46068;52.132;4.618;2023-06-10T02:35:38;8.27;;;4.28;;
60203;SDS011;46068;52.132;4.618;2023-06-10T02:38:04;7.32;;;3.92;;
60203;SDS011;46068;52.132;4.618;2023-06-10T02:40:31;14.32;;;4.30;;
60203;SDS011;46068;52.132;4.618;2023-06-10T02:42:57;10.45;;;4.50;;
60203;SDS011;46068;52.132;4.618;2023-06-10T02:45:24;9.70;;;3.95;;
60203;SDS011;46068;52.132;4.618;2023-06-10T02:47:51;9.10;;;4.10;;
60203;SDS011;46068;52.132;4.618;2023-06-10T02:50:18;12.43;;;4.50;;
60203;SDS011;46068;52.132;4.618;2023-06-10T02:52:44;10.13;;;4.38;;
60203;SDS011;46068;52.132;4.618;2023-06-10T02:55:10;10.57;;;3.97;;
60203;SDS011;46068;52.132;4.618;2023-06-10T02:57:37;9.98;;;4.35;;
60203;SDS011;46068;52.132;4.618;2023-06-10T03:00:03;9.90;;;4.78;;
60203;SDS011;46068;52.132;4.618;2023-06-10T03:02:35;9.55;;;4.32;;
60203;SDS011;46068;52.132;4.618;2023-06-10T03:05:04;10.70;;;4.10;;
60203;SDS011;46068;52.132;4.618;2023-06-10T03:07:30;9.00;;;4.32;;
60203;SDS011;46068;52.132;4.618;2023-06-10T03:09:57;6.70;;;4.10;;
60203;SDS011;46068;52.132;4.618;2023-06-10T03:12:23;6.32;;;4.45;;
60203;SDS011;46068;52.132;4.618;2023-06-10T03:14:49;10.65;;;4.38;;
60203;SDS011;46068;52.132;4.618;2023-06-10T03:17:16;15.00;;;4.40;;
60203;SDS011;46068;52.132;4.618;2023-06-10T03:19:42;9.05;;;4.57;;
60203;SDS011;46068;52.132;4.618;2023-06-10T03:22:10;9.02;;;4.53;;
60203;SDS011;46068;52.132;4.618;2023-06-10T03:24:36;12.90;;;4.60;;
60203;SDS011;46068;52.132;4.618;2023-06-10T03:27:05;7.13;;;4.88;;
60203;SDS011;46068;52.132;4.618;2023-06-10T03:29:31;7.88;;;4.60;;
60203;SDS011;46068;52.132;4.618;2023-06-10T03:31:57;9.77;;;4.20;;
60203;SDS011;46068;52.132;4.618;2023-06-10T03:34:23;10.85;;;4.53;;
60203;SDS011;46068;52.132;4.618;2023-06-10T03:36:50;8.20;;;4.63;;
60203;SDS011;46068;52.132;4.618;2023-06-10T03:39:17;10.85;;;4.13;;
60203;SDS011;46068;52.132;4.618;2023-06-10T03:41:44;7.78;;;4.70;;
60203;SDS011;46068;52.132;4.618;2023-06-10T03:44:10;8.63;;;4.35;;
60203;SDS011;46068;52.132;4.618;2023-06-10T03:46:36;12.02;;;4.65;;
60203;SDS011;46068;52.132;4.618;2023-06-10T03:49:02;11.10;;;4.90;;
60203;SDS011;46068;52.132;4.618;2023-06-10T03:51:29;8.80;;;4.78;;
60203;SDS011;46068;52.132;4.618;2023-06-10T03:53:55;9.18;;;4.47;;
60203;SDS011;46068;52.132;4.618;2023-06-10T03:56:22;11.50;;;4.60;;
60203;SDS011;46068;52.132;4.618;2023-06-10T03:58:49;11.32;;;3.97;;
60203;SDS011;46068;52.132;4.618;2023-06-10T04:01:15;13.30;;;5.38;;
60203;SDS011;46068;52.132;4.618;2023-06-10T04:03:43;8.75;;;4.75;;
60203;SDS011;46068;52.132;4.618;2023-06-10T04:06:09;8.20;;;4.30;;
60203;SDS011;46068;52.132;4.618;2023-06-10T04:08:35;10.65;;;4.57;;
60203;SDS011;46068;52.132;4.618;2023-06-10T04:11:02;8.73;;;4.43;;
60203;SDS011;46068;52.132;4.618;2023-06-10T04:13:29;11.05;;;5.10;;
60203;SDS011;46068;52.132;4.618;2023-06-10T04:15:56;13.70;;;5.10;;
60203;SDS011;46068;52.132;4.618;2023-06-10T04:18:22;16.30;;;5.07;;
60203;SDS011;46068;52.132;4.618;2023-06-10T04:20:48;10.85;;;4.80;;
60203;SDS011;46068;52.132;4.618;2023-06-10T04:23:14;12.88;;;5.00;;
60203;SDS011;46068;52.132;4.618;2023-06-10T04:25:44;10.48;;;4.65;;
60203;SDS011;46068;52.132;4.618;2023-06-10T04:28:10;8.05;;;4.28;;
60203;SDS011;46068;52.132;4.618;2023-06-10T04:30:38;13.20;;;4.43;;
60203;SDS011;46068;52.132;4.618;2023-06-10T04:33:04;9.90;;;4.70;;
60203;SDS011;46068;52.132;4.618;2023-06-10T04:35:31;13.38;;;4.45;;
60203;SDS011;46068;52.132;4.618;2023-06-10T04:37:57;11.32;;;5.35;;
60203;SDS011;46068;52.132;4.618;2023-06-10T04:40:24;11.80;;;4.75;;
60203;SDS011;46068;52.132;4.618;2023-06-10T04:42:51;9.85;;;4.53;;
60203;SDS011;46068;52.132;4.618;2023-06-10T04:45:17;9.25;;;4.53;;
60203;SDS011;46068;52.132;4.618;2023-06-10T04:47:45;10.98;;;4.90;;
60203;SDS011;46068;52.132;4.618;2023-06-10T04:50:11;10.48;;;5.00;;
60203;SDS011;46068;52.132;4.618;2023-06-10T04:52:37;10.50;;;4.60;;
60203;SDS011;46068;52.132;4.618;2023-06-10T04:55:06;10.10;;;4.80;;
60203;SDS011;46068;52.132;4.618;2023-06-10T04:57:33;10.10;;;5.20;;
60203;SDS011;46068;52.132;4.618;2023-06-10T04:59:59;9.40;;;4.25;;
60203;SDS011;46068;52.132;4.618;2023-06-10T05:02:25;12.88;;;5.05;;
60203;SDS011;46068;52.132;4.618;2023-06-10T05:04:53;11.30;;;5.03;;
60203;SDS011;46068;52.132;4.618;2023-06-10T05:07:20;8.52;;;4.80;;
60203;SDS011;46068;52.132;4.618;2023-06-10T05:09:46;16.05;;;5.30;;
60203;SDS011;46068;52.132;4.618;2023-06-10T05:12:12;11.60;;;4.95;;
60203;SDS011;46068;52.132;4.618;2023-06-10T05:14:38;8.63;;;4.85;;
60203;SDS011;46068;52.132;4.618;2023-06-10T05:17:05;15.80;;;5.13;;
60203;SDS011;46068;52.132;4.618;2023-06-10T05:19:31;9.80;;;4.90;;
60203;SDS011;46068;52.132;4.618;2023-06-10T05:21:59;11.25;;;4.88;;
60203;SDS011;46068;52.132;4.618;2023-06-10T05:24:25;9.35;;;4.85;;
60203;SDS011;46068;52.132;4.618;2023-06-10T05:26:51;10.38;;;5.13;;
60203;SDS011;46068;52.132;4.618;2023-06-10T05:29:18;9.45;;;4.97;;
60203;SDS011;46068;52.132;4.618;2023-06-10T05:31:44;10.85;;;4.82;;
60203;SDS011;46068;52.132;4.618;2023-06-10T05:34:11;11.63;;;5.43;;
60203;SDS011;46068;52.132;4.618;2023-06-10T05:36:37;8.90;;;4.70;;
60203;SDS011;46068;52.132;4.618;2023-06-10T05:39:05;14.80;;;5.07;;
60203;SDS011;46068;52.132;4.618;2023-06-10T05:41:31;10.18;;;4.95;;
60203;SDS011;46068;52.132;4.618;2023-06-10T05:43:57;12.27;;;4.93;;
60203;SDS011;46068;52.132;4.618;2023-06-10T05:46:23;13.65;;;4.88;;
60203;SDS011;46068;52.132;4.618;2023-06-10T05:48:50;10.38;;;5.07;;
60203;SDS011;46068;52.132;4.618;2023-06-10T05:51:16;9.48;;;4.97;;
60203;SDS011;46068;52.132;4.618;2023-06-10T05:53:42;11.75;;;5.25;;
60203;SDS011;46068;52.132;4.618;2023-06-10T05:56:12;10.40;;;5.07;;
60203;SDS011;46068;52.132;4.618;2023-06-10T05:58:38;12.55;;;4.65;;
60203;SDS011;46068;52.132;4.618;2023-06-10T06:01:05;7.75;;;4.60;;
60203;SDS011;46068;52.132;4.618;2023-06-10T06:03:31;7.80;;;4.45;;
60203;SDS011;46068;52.132;4.618;2023-06-10T06:05:57;10.18;;;5.05;;
60203;SDS011;46068;52.132;4.618;2023-06-10T06:08:23;7.95;;;4.85;;
60203;SDS011;46068;52.132;4.618;2023-06-10T06:10:50;8.70;;;4.57;;
60203;SDS011;46068;52.132;4.618;2023-06-10T06:13:17;11.43;;;5.22;;
60203;SDS011;46068;52.132;4.618;2023-06-10T06:15:44;8.55;;;4.63;;
60203;SDS011;46068;52.132;4.618;2023-06-10T06:18:10;11.75;;;5.47;;
60203;SDS011;46068;52.132;4.618;2023-06-10T06:20:36;9.93;;;5.40;;
60203;SDS011;46068;52.132;4.618;2023-06-10T06:23:02;9.15;;;5.68;;
60203;SDS011;46068;52.132;4.618;2023-06-10T06:25:29;7.22;;;4.75;;
60203;SDS011;46068;52.132;4.618;2023-06-10T06:27:55;11.63;;;5.15;;
60203;SDS011;46068;52.132;4.618;2023-06-10T06:30:23;9.43;;;4.90;;
60203;SDS011;46068;52.132;4.618;2023-06-10T06:32:49;8.40;;;4.90;;
60203;SDS011;46068;52.132;4.618;2023-06-10T06:35:16;10.30;;;5.63;;
60203;SDS011;46068;52.132;4.618;2023-06-10T06:37:43;11.35;;;5.22;;
60203;SDS011;46068;52.132;4.618;2023-06-10T06:40:09;11.57;;;5.38;;
60203;SDS011;46068;52.132;4.618;2023-06-10T06:42:36;9.48;;;4.80;;
60203;SDS011;46068;52.132;4.618;2023-06-10T06:45:02;12.05;;;5.22;;
60203;SDS011;46068;52.132;4.618;2023-06-10T06:47:30;8.52;;;4.95;;
60203;SDS011;46068;52.132;4.618;2023-06-10T06:49:56;10.45;;;4.85;;
60203;SDS011;46068;52.132;4.618;2023-06-10T06:52:22;11.55;;;4.80;;
60203;SDS011;46068;52.132;4.618;2023-06-10T06:54:49;10.80;;;5.10;;
60203;SDS011;46068;52.132;4.618;2023-06-10T06:57:15;8.60;;;4.82;;
60203;SDS011;46068;52.132;4.618;2023-06-10T06:59:41;12.32;;;5.05;;
60203;SDS011;46068;52.132;4.618;2023-06-10T07:02:07;9.77;;;5.10;;
60203;SDS011;46068;52.132;4.618;2023-06-10T07:04:35;8.63;;;4.60;;
60203;SDS011;46068;52.132;4.618;2023-06-10T07:07:01;10.77;;;4.80;;
60203;SDS011;46068;52.132;4.618;2023-06-10T07:09:27;11.40;;;5.53;;
60203;SDS011;46068;52.132;4.618;2023-06-10T07:11:54;9.20;;;5.22;;
60203;SDS011;46068;52.132;4.618;2023-06-10T07:14:20;12.98;;;5.03;;
60203;SDS011;46068;52.132;4.618;2023-06-10T07:16:46;11.20;;;5.00;;
60203;SDS011;46068;52.132;4.618;2023-06-10T07:19:13;9.32;;;4.75;;
60203;SDS011;46068;52.132;4.618;2023-06-10T07:21:41;10.70;;;5.32;;
60203;SDS011;46068;52.132;4.618;2023-06-10T07:24:07;10.65;;;4.85;;
60203;SDS011;46068;52.132;4.618;2023-06-10T07:26:34;9.23;;;4.97;;
60203;SDS011;46068;52.132;4.618;2023-06-10T07:29:00;7.03;;;4.68;;
60203;SDS011;46068;52.132;4.618;2023-06-10T07:31:26;8.43;;;4.70;;
60203;SDS011;46068;52.132;4.618;2023-06-10T07:33:52;9.00;;;4.82;;
60203;SDS011;46068;52.132;4.618;2023-06-10T07:36:19;11.30;;;4.60;;
60203;SDS011;46068;52.132;4.618;2023-06-10T07:38:46;7.88;;;4.40;;
60203;SDS011;46068;52.132;4.618;2023-06-10T07:41:12;10.35;;;5.03;;
60203;SDS011;46068;52.132;4.618;2023-06-10T07:43:39;11.13;;;4.78;;
60203;SDS011;46068;52.132;4.618;2023-06-10T07:46:05;7.72;;;5.03;;
60203;SDS011;46068;52.132;4.618;2023-06-10T07:48:31;7.80;;;5.18;;
60203;SDS011;46068;52.132;4.618;2023-06-10T07:50:58;9.02;;;4.57;;
60203;SDS011;46068;52.132;4.618;2023-06-10T07:53:24;7.85;;;4.60;;
60203;SDS011;46068;52.132;4.618;2023-06-10T07:55:52;9.60;;;4.68;;
60203;SDS011;46068;52.132;4.618;2023-06-10T07:58:18;8.80;;;4.72;;
60203;SDS011;46068;52.132;4.618;2023-06-10T08:00:44;8.55;;;4.80;;
60203;SDS011;46068;52.132;4.618;2023-06-10T08:03:11;9.30;;;4.65;;
60203;SDS011;46068;52.132;4.618;2023-06-10T08:05:37;13.10;;;4.57;;
60203;SDS011;46068;52.132;4.618;2023-06-10T08:08:05;8.85;;;4.50;;
60203;SDS011;46068;52.132;4.618;2023-06-10T08:10:31;9.45;;;4.85;;
60203;SDS011;46068;52.132;4.618;2023-06-10T08:12:59;12.98;;;5.20;;
60203;SDS011;46068;52.132;4.618;2023-06-10T08:15:25;11.02;;;4.72;;
60203;SDS011;46068;52.132;4.618;2023-06-10T08:17:51;12.35;;;5.10;;
60203;SDS011;46068;52.132;4.618;2023-06-10T08:20:18;6.75;;;4.13;;
60203;SDS011;46068;52.132;4.618;2023-06-10T08:22:44;11.07;;;5.00;;
60203;SDS011;46068;52.132;4.618;2023-06-10T08:25:10;12.50;;;5.07;;
60203;SDS011;46068;52.132;4.618;2023-06-10T08:27:36;9.35;;;5.38;;
60203;SDS011;46068;52.132;4.618;2023-06-10T08:30:05;10.25;;;4.70;;
60203;SDS011;46068;52.132;4.618;2023-06-10T08:32:31;12.82;;;5.35;;
60203;SDS011;46068;52.132;4.618;2023-06-10T08:34:57;9.60;;;4.95;;
60203;SDS011;46068;52.132;4.618;2023-06-10T08:37:24;7.65;;;5.00;;
60203;SDS011;46068;52.132;4.618;2023-06-10T08:39:50;9.00;;;4.90;;
60203;SDS011;46068;52.132;4.618;2023-06-10T08:42:19;7.78;;;4.80;;
60203;SDS011;46068;52.132;4.618;2023-06-10T08:44:48;9.15;;;5.03;;
60203;SDS011;46068;52.132;4.618;2023-06-10T08:47:17;11.07;;;4.47;;
60203;SDS011;46068;52.132;4.618;2023-06-10T08:49:44;8.15;;;4.80;;
60203;SDS011;46068;52.132;4.618;2023-06-10T08:52:11;8.45;;;5.10;;
60203;SDS011;46068;52.132;4.618;2023-06-10T08:54:40;12.68;;;4.80;;
60203;SDS011;46068;52.132;4.618;2023-06-10T08:57:08;11.60;;;4.70;;
60203;SDS011;46068;52.132;4.618;2023-06-10T08:59:34;9.43;;;4.95;;
60203;SDS011;46068;52.132;4.618;2023-06-10T09:02:01;7.18;;;4.30;;
60203;SDS011;46068;52.132;4.618;2023-06-10T09:04:29;9.35;;;4.38;;
60203;SDS011;46068;52.132;4.618;2023-06-10T09:06:56;11.18;;;5.28;;
60203;SDS011;46068;52.132;4.618;2023-06-10T09:09:23;10.35;;;4.72;;
60203;SDS011;46068;52.132;4.618;2023-06-10T09:11:50;9.93;;;5.03;;
60203;SDS011;46068;52.132;4.618;2023-06-10T09:14:16;9.20;;;5.07;;
60203;SDS011;46068;52.132;4.618;2023-06-10T09:16:42;10.80;;;5.53;;
60203;SDS011;46068;52.132;4.618;2023-06-10T09:19:10;9.65;;;4.78;;
60203;SDS011;46068;52.132;4.618;2023-06-10T09:21:38;7.15;;;4.43;;
60203;SDS011;46068;52.132;4.618;2023-06-10T09:24:04;10.80;;;5.03;;
60203;SDS011;46068;52.132;4.618;2023-06-10T09:26:31;11.68;;;5.05;;
60203;SDS011;46068;52.132;4.618;2023-06-10T09:28:57;9.10;;;5.00;;
60203;SDS011;46068;52.132;4.618;2023-06-10T09:31:24;7.53;;;4.20;;
60203;SDS011;46068;52.132;4.618;2023-06-10T09:33:50;8.75;;;4.55;;
60203;SDS011;46068;52.132;4.618;2023-06-10T09:36:21;7.95;;;4.47;;
60203;SDS011;46068;52.132;4.618;2023-06-10T09:38:49;7.10;;;4.50;;
60203;SDS011;46068;52.132;4.618;2023-06-10T09:41:15;8.50;;;4.22;;
60203;SDS011;46068;52.132;4.618;2023-06-10T09:43:42;9.02;;;4.55;;
60203;SDS011;46068;52.132;4.618;2023-06-10T09:46:14;7.15;;;4.82;;
60203;SDS011;46068;52.132;4.618;2023-06-10T09:48:41;8.60;;;4.68;;
60203;SDS011;46068;52.132;4.618;2023-06-10T09:51:08;8.00;;;4.65;;
60203;SDS011;46068;52.132;4.618;2023-06-10T09:53:35;6.85;;;4.70;;
60203;SDS011;46068;52.132;4.618;2023-06-10T09:56:02;7.93;;;4.47;;
60203;SDS011;46068;52.132;4.618;2023-06-10T09:58:35;9.30;;;5.38;;
60203;SDS011;46068;52.132;4.618;2023-06-10T10:01:04;9.27;;;4.70;;
60203;SDS011;46068;52.132;4.618;2023-06-10T10:03:30;13.48;;;4.43;;
60203;SDS011;46068;52.132;4.618;2023-06-10T10:05:57;9.93;;;4.85;;
60203;SDS011;46068;52.132;4.618;2023-06-10T10:08:24;8.95;;;5.15;;
60203;SDS011;46068;52.132;4.618;2023-06-10T10:10:50;9.07;;;5.05;;
60203;SDS011;46068;52.132;4.618;2023-06-10T10:13:17;6.80;;;4.60;;
60203;SDS011;46068;52.132;4.618;2023-06-10T10:15:44;10.00;;;4.93;;
60203;SDS011;46068;52.132;4.618;2023-06-10T10:18:11;15.70;;;5.40;;
60203;SDS011;46068;52.132;4.618;2023-06-10T10:20:40;8.77;;;4.40;;
60203;SDS011;46068;52.132;4.618;2023-06-10T10:23:08;6.90;;;4.60;;
60203;SDS011;46068;52.132;4.618;2023-06-10T10:25:35;9.40;;;4.50;;
60203;SDS011;46068;52.132;4.618;2023-06-10T10:28:02;6.75;;;4.57;;
60203;SDS011;46068;52.132;4.618;2023-06-10T10:30:32;7.78;;;4.25;;
60203;SDS011;46068;52.132;4.618;2023-06-10T10:33:04;10.77;;;4.75;;
60203;SDS011;46068;52.132;4.618;2023-06-10T10:35:31;10.00;;;4.65;;
60203;SDS011;46068;52.132;4.618;2023-06-10T10:37:58;9.15;;;5.13;;
60203;SDS011;46068;52.132;4.618;2023-06-10T10:40:25;7.57;;;4.40;;
60203;SDS011;46068;52.132;4.618;2023-06-10T10:42:55;12.60;;;4.63;;
60203;SDS011;46068;52.132;4.618;2023-06-10T10:45:21;9.98;;;4.38;;
60203;SDS011;46068;52.132;4.618;2023-06-10T10:47:51;7.90;;;4.43;;
60203;SDS011;46068;52.132;4.618;2023-06-10T10:50:18;10.98;;;4.88;;
60203;SDS011;46068;52.132;4.618;2023-06-10T10:52:52;7.30;;;4.20;;
60203;SDS011;46068;52.132;4.618;2023-06-10T10:55:18;9.85;;;4.65;;
60203;SDS011;46068;52.132;4.618;2023-06-10T10:57:45;6.70;;;4.47;;
60203;SDS011;46068;52.132;4.618;2023-06-10T11:00:24;9.98;;;4.88;;
60203;SDS011;46068;52.132;4.618;2023-06-10T11:02:51;7.28;;;4.25;;
60203;SDS011;46068;52.132;4.618;2023-06-10T11:05:20;5.32;;;3.55;;
60203;SDS011;46068;52.132;4.618;2023-06-10T11:07:56;11.15;;;4.60;;
60203;SDS011;46068;52.132;4.618;2023-06-10T11:10:29;9.60;;;4.47;;
60203;SDS011;46068;52.132;4.618;2023-06-10T11:12:56;8.07;;;4.05;;
60203;SDS011;46068;52.132;4.618;2023-06-10T11:15:22;6.57;;;4.15;;
60203;SDS011;46068;52.132;4.618;2023-06-10T11:23:26;8.20;;;3.65;;
60203;SDS011;46068;52.132;4.618;2023-06-10T11:26:08;6.07;;;3.63;;
60203;SDS011;46068;52.132;4.618;2023-06-10T11:28:35;5.47;;;3.80;;
60203;SDS011;46068;52.132;4.618;2023-06-10T11:31:02;7.07;;;4.05;;
60203;SDS011;46068;52.132;4.618;2023-06-10T11:33:28;6.32;;;4.25;;
60203;SDS011;46068;52.132;4.618;2023-06-10T11:35:54;6.95;;;3.63;;
60203;SDS011;46068;52.132;4.618;2023-06-10T11:38:21;7.65;;;4.40;;
60203;SDS011;46068;52.132;4.618;2023-06-10T11:40:49;9.93;;;4.18;;
60203;SDS011;46068;52.132;4.618;2023-06-10T11:43:15;9.48;;;4.10;;
60203;SDS011;46068;52.132;4.618;2023-06-10T11:45:42;9.20;;;4.53;;
60203;SDS011;46068;52.132;4.618;2023-06-10T11:48:09;9.05;;;4.32;;
60203;SDS011;46068;52.132;4.618;2023-06-10T11:50:35;9.43;;;4.30;;
60203;SDS011;46068;52.132;4.618;2023-06-10T11:53:02;9.60;;;4.28;;
60203;SDS011;46068;52.132;4.618;2023-06-10T11:55:40;8.80;;;4.75;;
60203;SDS011;46068;52.132;4.618;2023-06-10T11:58:12;6.53;;;4.07;;
60203;SDS011;46068;52.132;4.618;2023-06-10T12:00:43;9.38;;;4.22;;
60203;SDS011;46068;52.132;4.618;2023-06-10T12:03:09;9.35;;;4.38;;
60203;SDS011;46068;52.132;4.618;2023-06-10T12:05:36;6.97;;;4.15;;
60203;SDS011;46068;52.132;4.618;2023-06-10T12:08:08;6.40;;;4.10;;
60203;SDS011;46068;52.132;4.618;2023-06-10T12:10:39;8.00;;;4.00;;
60203;SDS011;46068;52.132;4.618;2023-06-10T12:13:05;7.88;;;4.05;;
60203;SDS011;46068;52.132;4.618;2023-06-10T12:15:33;9.45;;;4.60;;
60203;SDS011;46068;52.132;4.618;2023-06-10T12:17:59;8.02;;;4.28;;
60203;SDS011;46068;52.132;4.618;2023-06-10T12:20:26;7.75;;;4.40;;
60203;SDS011;46068;52.132;4.618;2023-06-10T12:22:52;10.70;;;3.92;;
60203;SDS011;46068;52.132;4.618;2023-06-10T12:25:23;9.55;;;4.30;;
60203;SDS011;46068;52.132;4.618;2023-06-10T12:27:50;7.85;;;4.20;;
60203;SDS011;46068;52.132;4.618;2023-06-10T12:30:18;12.57;;;4.05;;
60203;SDS011;46068;52.132;4.618;2023-06-10T12:32:46;11.50;;;4.28;;
60203;SDS011;46068;52.132;4.618;2023-06-10T12:35:13;8.13;;;4.18;;
60203;SDS011;46068;52.132;4.618;2023-06-10T12:37:41;9.13;;;3.88;;
60203;SDS011;46068;52.132;4.618;2023-06-10T12:40:08;7.03;;;4.20;;
60203;SDS011;46068;52.132;4.618;2023-06-10T12:42:35;6.28;;;4.15;;
60203;SDS011;46068;52.132;4.618;2023-06-10T12:45:02;6.20;;;3.83;;
60203;SDS011;46068;52.132;4.618;2023-06-10T12:47:29;9.45;;;4.13;;
60203;SDS011;46068;52.132;4.618;2023-06-10T12:49:58;7.60;;;4.00;;
60203;SDS011;46068;52.132;4.618;2023-06-10T12:52:25;5.40;;;3.88;;
60203;SDS011;46068;52.132;4.618;2023-06-10T12:54:51;8.18;;;4.28;;
60203;SDS011;46068;52.132;4.618;2023-06-10T12:57:17;5.90;;;3.90;;
60203;SDS011;46068;52.132;4.618;2023-06-10T12:59:44;9.55;;;3.92;;
60203;SDS011;46068;52.132;4.618;2023-06-10T13:02:15;7.45;;;3.60;;
60203;SDS011;46068;52.132;4.618;2023-06-10T13:04:43;6.70;;;4.38;;
60203;SDS011;46068;52.132;4.618;2023-06-10T13:07:11;6.95;;;4.10;;
60203;SDS011;46068;52.132;4.618;2023-06-10T13:09:37;8.98;;;4.53;;
60203;SDS011;46068;52.132;4.618;2023-06-10T13:12:03;7.68;;;4.60;;
60203;SDS011;46068;52.132;4.618;2023-06-10T13:14:30;7.10;;;4.40;;
60203;SDS011;46068;52.132;4.618;2023-06-10T13:16:57;7.70;;;4.25;;
60203;SDS011;46068;52.132;4.618;2023-06-10T13:19:23;7.43;;;4.05;;
60203;SDS011;46068;52.132;4.618;2023-06-10T13:21:49;8.98;;;3.92;;
60203;SDS011;46068;52.132;4.618;2023-06-10T13:24:17;12.10;;;4.00;;
60203;SDS011;46068;52.132;4.618;2023-06-10T13:26:44;6.65;;;4.15;;
60203;SDS011;46068;52.132;4.618;2023-06-10T13:29:11;7.50;;;3.85;;
60203;SDS011;46068;52.132;4.618;2023-06-10T13:31:39;6.18;;;4.15;;
60203;SDS011;46068;52.132;4.618;2023-06-10T13:34:05;8.05;;;4.05;;
60203;SDS011;46068;52.132;4.618;2023-06-10T13:36:32;6.82;;;3.85;;
60203;SDS011;46068;52.132;4.618;2023-06-10T13:38:58;7.18;;;3.75;;
60203;SDS011;46068;52.132;4.618;2023-06-10T13:41:26;8.93;;;3.90;;
60203;SDS011;46068;52.132;4.618;2023-06-10T13:43:53;6.75;;;4.10;;
60203;SDS011;46068;52.132;4.618;2023-06-10T13:46:20;8.45;;;4.22;;
60203;SDS011;46068;52.132;4.618;2023-06-10T13:48:46;8.68;;;3.72;;
60203;SDS011;46068;52.132;4.618;2023-06-10T13:51:13;7.18;;;3.53;;
60203;SDS011;46068;52.132;4.618;2023-06-10T13:53:39;8.48;;;3.80;;
60203;SDS011;46068;52.132;4.618;2023-06-10T13:56:05;10.27;;;4.53;;
60203;SDS011;46068;52.132;4.618;2023-06-10T13:58:33;8.18;;;4.13;;
60203;SDS011;46068;52.132;4.618;2023-06-10T14:01:03;10.68;;;4.35;;
60203;SDS011;46068;52.132;4.618;2023-06-10T14:03:30;8.15;;;3.80;;
60203;SDS011;46068;52.132;4.618;2023-06-10T14:05:56;7.65;;;4.13;;
60203;SDS011;46068;52.132;4.618;2023-06-10T14:08:23;8.38;;;3.63;;
60203;SDS011;46068;52.132;4.618;2023-06-10T14:10:49;6.00;;;3.72;;
60203;SDS011;46068;52.132;4.618;2023-06-10T14:13:16;8.50;;;4.18;;
60203;SDS011;46068;52.132;4.618;2023-06-10T14:15:44;8.48;;;3.88;;
60203;SDS011;46068;52.132;4.618;2023-06-10T14:18:11;5.13;;;3.50;;
60203;SDS011;46068;52.132;4.618;2023-06-10T14:20:37;6.80;;;3.47;;
60203;SDS011;46068;52.132;4.618;2023-06-10T14:23:04;7.40;;;3.80;;
60203;SDS011;46068;52.132;4.618;2023-06-10T14:25:30;6.20;;;3.25;;
60203;SDS011;46068;52.132;4.618;2023-06-10T14:27:57;8.27;;;3.85;;
60203;SDS011;46068;52.132;4.618;2023-06-10T14:30:23;8.60;;;4.10;;
60203;SDS011;46068;52.132;4.618;2023-06-10T14:32:50;6.63;;;3.60;;
60203;SDS011;46068;52.132;4.618;2023-06-10T14:35:17;6.88;;;3.30;;
60203;SDS011;46068;52.132;4.618;2023-06-10T14:37:43;10.35;;;3.97;;
60203;SDS011;46068;52.132;4.618;2023-06-10T14:40:09;9.02;;;3.72;;
60203;SDS011;46068;52.132;4.618;2023-06-10T14:42:36;10.05;;;3.95;;
60203;SDS011;46068;52.132;4.618;2023-06-10T14:45:03;6.38;;;3.78;;
60203;SDS011;46068;52.132;4.618;2023-06-10T14:47:29;7.72;;;3.75;;